Página principal
METAR-TAF:

METAR-TAF

Aeroportos :

Aeroporto Internacional Henri Coandă

Bucareste, Roménia

latitude: 44-33N, longitude: 026-06E, altura: 95 m

Observação actual do tempo

O boletim foi feito há 28 minutos, às 11:00 UTC
Vento 5 kt de este, variando entre nordeste e su-sudeste
Temperatura 32°C
Humidade 29%
Pressão 1022 hPa
Visibilidade 10 km ou mais
sem nuvens abaixo de 1500 metros e sem cumulonimbus

METAR: LROP 231100Z 09005KT 040V160 CAVOK 32/12 Q1022 NOSIG

Hora: 14:28 (11:28 UTC)

Previsão

O boletim foi feito há 6 horas e 28 minutos, às 05:00 UTC
Previsão válida de 23 às 06 UTC a 24 às 06 UTC
Vento 4 kt com direcção variável
Visibilidade 10 km ou mais
sem nuvens abaixo de 1500 metros e sem cumulonimbus
Tornando-se
de 23 às 12 UTC a 23 às 14 UTC
Vento 12 kt de nordeste

TAF: LROP 230500Z 2306/2406 VRB04KT CAVOK BECMG 2312/2314 05012KT

Observações e previsões do tempo de mais de 4000 aeroportos (mensagens METAR e TAF).

As estações disponíveis são os pontos amarelos e vermelhos sobre o mapa.

Mova o rato sobre o mapa para ver o nome da estação.

Depois clique no ponto para visualizar as observações e previsões meteorológicas.

Para alterar o mapa : clique nos botões verdes com uma cruz preta para aumentar o zoom; no botão verde com uma pitada de zoom; ou nas setas verdes para mapas adjacentes.


METAR-TAF: